Time;durP1;ratioP1;P1;durP2;ratioP2;P2;SDS_P1;SDS_P2;PMS_P1;PMS_P2;Temp;Humidity;BMP_temperature;BMP_pressure;BME280_temperature;BME280_humidity;BME280_pressure;Samples;Min_cycle;Max_cycle;Signal;HPM_P1;HPM_P2
2022/12/28 00:02:26;;;;;;;6.00;5.53;;;;;;;8.55;68.47;95931.69;5098215;28;20196;-73
2022/12/28 00:04:53;;;;;;;6.15;5.65;;;;;;;8.57;68.18;95930.25;5098267;28;20192;-73
2022/12/28 00:07:19;;;;;;;6.32;5.80;;;;;;;8.58;68.23;95931.06;5097619;28;20536;-73
2022/12/28 00:09:46;;;;;;;5.72;5.30;;;;;;;8.58;68.02;95929.09;5097928;28;20197;-73
2022/12/28 00:12:13;;;;;;;5.90;5.40;;;;;;;8.59;67.98;95935.41;5098399;28;20220;-73
2022/12/28 00:14:39;;;;;;;6.07;5.68;;;;;;;8.57;67.81;95929.41;5098017;28;20207;-73
2022/12/28 00:17:08;;;;;;;6.30;5.70;;;;;;;8.59;68.11;95941.72;5097907;28;20200;-73
2022/12/28 00:19:34;;;;;;;5.97;5.57;;;;;;;8.60;67.86;95934.28;5097771;28;20188;-74
2022/12/28 00:22:01;;;;;;;5.40;5.00;;;;;;;8.61;67.74;95933.97;5097412;28;20189;-74
2022/12/28 00:24:28;;;;;;;6.35;5.85;;;;;;;8.63;67.56;95948.19;5098029;28;20608;-74
2022/12/28 00:26:55;;;;;;;6.20;5.80;;;;;;;8.64;67.46;95944.34;5097613;28;20197;-74
2022/12/28 00:29:22;;;;;;;5.82;5.43;;;;;;;8.65;67.31;95942.41;5097714;28;20204;-74
2022/12/28 00:31:49;;;;;;;5.65;5.25;;;;;;;8.66;67.28;95952.25;5097412;28;20224;-74
2022/12/28 00:34:18;;;;;;;5.50;5.10;;;;;;;8.64;67.46;95951.75;5098002;28;20200;-74
2022/12/28 00:36:44;;;;;;;5.82;5.32;;;;;;;8.66;67.17;95955.00;5097251;28;20196;-73
2022/12/28 00:39:11;;;;;;;5.68;5.28;;;;;;;8.67;67.29;95957.44;5096967;28;20239;-72
2022/12/28 00:41:40;;;;;;;5.53;5.13;;;;;;;8.66;67.05;95955.81;5096958;28;20199;-72
2022/12/28 00:44:07;;;;;;;6.00;5.50;;;;;;;8.65;67.37;95958.91;5097208;28;20200;-72
2022/12/28 00:46:33;;;;;;;6.90;6.35;;;;;;;8.66;67.25;95969.56;5097176;28;20203;-72
2022/12/28 00:49:00;;;;;;;6.50;6.00;;;;;;;8.65;67.33;95964.41;5096592;28;20192;-72
2022/12/28 00:51:28;;;;;;;6.93;6.32;;;;;;;8.59;67.70;95960.97;5097082;28;20297;-73
2022/12/28 00:53:55;;;;;;;7.03;6.43;;;;;;;8.60;67.65;95962.56;5096690;28;20208;-72
2022/12/28 00:56:22;;;;;;;7.40;6.80;;;;;;;8.58;68.03;95958.53;5096995;28;20207;-72
2022/12/28 00:58:50;;;;;;;7.65;7.05;;;;;;;8.59;68.31;95962.91;5096886;28;20553;-73
2022/12/28 01:01:18;;;;;;;7.60;7.00;;;;;;;8.56;68.56;95964.34;5097087;28;20211;-72
2022/12/28 01:03:45;;;;;;;8.50;7.82;;;;;;;8.55;68.82;95961.94;5096585;28;20211;-72
2022/12/28 01:06:14;;;;;;;8.18;7.57;;;;;;;8.54;68.82;95963.06;5096652;28;20197;-74
2022/12/28 01:08:42;;;;;;;9.07;8.27;;;;;;;8.51;68.90;95970.00;5096727;28;20317;-73
2022/12/28 01:11:10;;;;;;;8.80;8.00;;;;;;;8.50;69.26;95959.34;5096667;28;20220;-72
2022/12/28 01:13:37;;;;;;;9.43;8.73;;;;;;;8.50;69.23;95959.34;5096553;28;20192;-73
2022/12/28 01:16:11;;;;;;;9.52;8.82;;;;;;;8.51;69.06;95963.69;5097105;28;20205;-73
2022/12/28 01:18:38;;;;;;;9.23;8.52;;;;;;;8.49;69.05;95965.94;5096878;28;20200;-72
2022/12/28 01:21:09;;;;;;;9.98;9.18;;;;;;;8.49;69.31;95955.75;5096482;28;20200;-72
2022/12/28 01:23:36;;;;;;;8.63;8.02;;;;;;;8.50;69.13;95962.09;5096041;28;20628;-72
2022/12/28 01:26:04;;;;;;;8.93;8.23;;;;;;;8.47;69.11;95960.78;5096532;28;20200;-72
2022/12/28 01:28:31;;;;;;;10.32;9.43;;;;;;;8.41;69.44;95957.34;5096524;28;20647;-72
2022/12/28 01:31:05;;;;;;;11.18;10.38;;;;;;;8.39;69.64;95954.13;5096369;28;20294;-72
2022/12/28 01:33:32;;;;;;;10.80;9.98;;;;;;;8.36;69.90;95960.22;5095903;28;20230;-72
2022/12/28 01:35:58;;;;;;;11.23;10.32;;;;;;;8.35;69.71;95960.50;5096280;28;20223;-72
2022/12/28 01:38:25;;;;;;;11.27;10.38;;;;;;;8.34;70.06;95958.91;5096653;28;20196;-72
2022/12/28 01:40:52;;;;;;;11.48;10.50;;;;;;;8.34;69.80;95958.91;5095561;28;20235;-72
2022/12/28 01:43:36;;;;;;;11.55;10.65;;;;;;;8.34;69.78;95945.97;5095690;28;20196;-72
2022/12/28 01:46:02;;;;;;;10.65;9.85;;;;;;;8.35;69.83;95950.34;5096055;28;20207;-73
2022/12/28 01:48:29;;;;;;;10.98;10.18;;;;;;;8.35;69.29;95955.00;5096396;28;20192;-73
2022/12/28 01:50:56;;;;;;;10.80;10.00;;;;;;;8.33;69.44;95957.28;5095904;28;20192;-73
2022/12/28 01:53:23;;;;;;;11.27;10.38;;;;;;;8.32;69.15;95950.19;5095764;28;20196;-73
2022/12/28 01:55:49;;;;;;;11.40;10.50;;;;;;;8.28;69.03;95952.75;5095644;28;20196;-74
2022/12/28 01:58:18;;;;;;;10.77;9.98;;;;;;;8.28;69.04;95955.50;5096059;28;20200;-74
2022/12/28 02:00:46;;;;;;;12.13;11.13;;;;;;;8.27;68.85;95953.84;5095088;28;20208;-73
2022/12/28 02:03:17;;;;;;;11.15;10.25;;;;;;;8.26;68.62;95943.19;5095543;28;20541;-73
2022/12/28 02:05:47;;;;;;;11.43;10.48;;;;;;;8.26;68.59;95949.50;5095314;28;20208;-73
2022/12/28 02:08:18;;;;;;;12.30;11.30;;;;;;;8.25;68.14;95945.13;5095825;28;20199;-73
2022/12/28 02:10:46;;;;;;;12.02;11.02;;;;;;;8.19;68.19;95947.19;5095516;28;20203;-73
2022/12/28 02:13:13;;;;;;;11.82;10.82;;;;;;;8.15;67.86;95940.72;5095644;28;20196;-73
2022/12/28 02:15:40;;;;;;;12.48;11.38;;;;;;;8.14;67.99;95933.59;5095236;28;20223;-73
2022/12/28 02:18:09;;;;;;;12.50;11.50;;;;;;;8.14;67.71;95938.28;5095949;28;20196;-73
2022/12/28 02:21:01;;;;;;;11.38;10.38;;;;;;;8.14;67.16;95943.78;5096373;28;20196;-73
2022/12/28 02:23:45;;;;;;;12.68;11.68;;;;;;;8.09;67.00;95928.22;5095140;28;20188;-72
2022/12/28 02:26:36;;;;;;;12.65;11.65;;;;;;;8.08;67.12;95923.06;5095005;28;20197;-72
2022/12/28 02:29:27;;;;;;;12.85;11.85;;;;;;;8.03;67.11;95909.47;5095120;28;20208;-72
2022/12/28 02:32:00;;;;;;;12.15;11.25;;;;;;;8.00;66.89;95923.84;5094785;28;20220;-73
2022/12/28 02:34:32;;;;;;;11.80;10.90;;;;;;;8.02;67.03;95916.88;5095353;28;20189;-73
2022/12/28 02:37:01;;;;;;;12.27;11.27;;;;;;;8.02;66.88;95916.06;5095205;28;20193;-73
2022/12/28 02:39:32;;;;;;;11.85;10.95;;;;;;;8.01;66.28;95923.50;5094620;28;20235;-73
2022/12/28 02:42:00;;;;;;;11.25;10.35;;;;;;;7.99;66.22;95920.28;5095621;28;20180;-72
2022/12/28 02:50:07;;;;;;;10.13;9.32;;;;;;;7.94;65.17;95917.66;5094742;28;20303;-72
2022/12/28 02:52:58;;;;;;;10.35;9.55;;;;;;;7.90;64.98;95916.66;5094516;28;20220;-73
2022/12/28 02:58:41;;;;;;;9.43;8.65;;;;;;;7.93;64.56;95902.31;5094450;28;20431;-72
2022/12/28 03:01:18;;;;;;;9.13;8.40;;;;;;;7.94;64.55;95895.69;5094557;28;20597;-72
2022/12/28 03:03:56;;;;;;;8.63;7.93;;;;;;;7.96;64.35;95893.44;5094730;28;20188;-72
2022/12/28 03:09:24;;;;;;;8.38;7.68;;;;;;;7.96;63.92;95898.94;5094669;28;20212;-72
2022/12/28 03:11:54;;;;;;;8.85;8.05;;;;;;;7.94;63.49;95895.69;5094153;28;20215;-72
2022/12/28 03:14:24;;;;;;;9.07;8.27;;;;;;;7.93;63.75;95891.31;5093867;28;20192;-72
2022/12/28 03:31:05;;;;;;;8.02;7.43;;;;;;;7.85;63.56;95914.06;5094531;28;20314;-73
2022/12/28 03:33:34;;;;;;;9.07;8.27;;;;;;;7.83;63.41;95910.81;5094000;28;20204;-72
2022/12/28 03:36:05;;;;;;;8.70;8.10;;;;;;;7.79;63.45;95913.38;5093968;28;20196;-72
2022/12/28 03:38:44;;;;;;;9.23;8.43;;;;;;;7.79;63.47;95918.06;5094884;28;20192;-72
2022/12/28 03:41:14;;;;;;;9.38;8.48;;;;;;;7.74;63.57;95910.78;5094035;28;20204;-72
2022/12/28 03:43:44;;;;;;;9.75;8.85;;;;;;;7.73;63.42;95914.63;5093858;28;20541;-73
2022/12/28 03:46:16;;;;;;;8.88;8.07;;;;;;;7.72;63.27;95913.00;5094068;28;20192;-73
2022/12/28 03:48:45;;;;;;;8.95;8.15;;;;;;;7.67;63.36;95905.72;5094371;28;20188;-72
2022/12/28 03:51:14;;;;;;;8.93;8.02;;;;;;;7.68;63.33;95912.81;5093911;28;20647;-72
2022/12/28 03:53:42;;;;;;;7.85;7.18;;;;;;;7.63;63.18;95907.47;5094184;28;20197;-72
2022/12/28 03:56:11;;;;;;;8.18;7.47;;;;;;;7.60;63.23;95901.81;5094030;28;20199;-72
2022/12/28 03:58:38;;;;;;;8.23;7.53;;;;;;;7.56;63.40;95887.88;5093710;28;20200;-72
2022/12/28 04:01:05;;;;;;;9.05;8.25;;;;;;;7.55;63.14;95894.47;5093794;28;20315;-71
2022/12/28 04:03:32;;;;;;;9.85;8.90;;;;;;;7.56;63.34;95885.16;5093922;28;20192;-71
2022/12/28 04:06:00;;;;;;;8.77;7.97;;;;;;;7.57;63.03;95896.94;5093707;28;20193;-71
2022/12/28 04:08:27;;;;;;;8.40;7.60;;;;;;;7.55;62.90;95902.72;5093996;28;20200;-72
2022/12/28 04:10:54;;;;;;;7.70;7.00;;;;;;;7.57;62.98;95905.16;5093999;28;20200;-72
2022/12/28 04:13:21;;;;;;;7.18;6.57;;;;;;;7.57;62.64;95900.47;5093435;28;20556;-72
2022/12/28 04:15:56;;;;;;;7.45;6.82;;;;;;;7.58;62.36;95904.03;5093676;28;20639;-71
2022/12/28 04:18:22;;;;;;;7.47;6.88;;;;;;;7.59;62.36;95909.22;5093688;28;20192;-71
2022/12/28 04:20:49;;;;;;;7.32;6.82;;;;;;;7.60;62.31;95918.28;5093456;28;20192;-71
2022/12/28 04:23:17;;;;;;;7.90;7.20;;;;;;;7.62;62.20;95935.22;5093790;28;20181;-71
2022/12/28 04:25:44;;;;;;;8.02;7.43;;;;;;;7.60;62.13;95927.31;5096394;28;20199;-71
2022/12/28 04:28:11;;;;;;;8.45;7.68;;;;;;;7.60;62.36;95938.28;5097153;28;20207;-71
2022/12/28 04:30:37;;;;;;;6.47;5.97;;;;;;;7.59;62.11;95922.97;5097148;28;20612;-71
2022/12/28 04:33:04;;;;;;;6.72;6.07;;;;;;;7.60;61.18;95932.81;5096966;28;20216;-72
2022/12/28 04:35:32;;;;;;;5.90;5.40;;;;;;;7.61;61.24;95931.69;5097288;28;20184;-73
2022/12/28 04:37:58;;;;;;;6.05;5.55;;;;;;;7.60;61.13;95932.00;5097112;28;20199;-71
2022/12/28 04:40:27;;;;;;;6.20;5.70;;;;;;;7.61;61.01;95939.91;5096620;28;20310;-72
2022/12/28 04:42:53;;;;;;;5.88;5.40;;;;;;;7.60;60.56;95940.25;5096850;28;20203;-72
2022/12/28 04:45:20;;;;;;;5.43;5.03;;;;;;;7.58;60.52;95939.72;5096673;28;20204;-72
2022/12/28 04:47:47;;;;;;;5.88;5.40;;;;;;;7.59;60.58;95936.69;5096619;28;20197;-72
2022/12/28 04:50:13;;;;;;;6.10;5.60;;;;;;;7.62;60.73;95938.78;5097025;28;20253;-72
2022/12/28 04:52:40;;;;;;;5.57;5.18;;;;;;;7.65;60.45;95946.41;5096874;28;20216;-73
2022/12/28 04:55:07;;;;;;;5.20;4.80;;;;;;;7.67;60.08;95944.16;5096956;28;20208;-72
2022/12/28 04:57:36;;;;;;;5.47;5.07;;;;;;;7.68;60.04;95944.97;5096783;28;20192;-72
2022/12/28 05:00:03;;;;;;;5.22;4.82;;;;;;;7.69;59.56;95944.66;5096678;28;20201;-72
2022/12/28 05:02:31;;;;;;;4.18;3.88;;;;;;;7.68;59.19;95937.53;5097017;28;20208;-72
2022/12/28 05:04:57;;;;;;;4.82;4.43;;;;;;;7.69;59.33;95933.66;5096969;28;20188;-72
2022/12/28 05:07:24;;;;;;;5.05;4.65;;;;;;;7.72;59.28;95937.72;5097057;28;20196;-72
2022/12/28 05:09:51;;;;;;;4.95;4.55;;;;;;;7.75;58.67;95934.34;5096376;28;20204;-72
2022/12/28 05:12:17;;;;;;;4.78;4.38;;;;;;;7.75;59.94;95930.81;5096577;28;20572;-71
2022/12/28 05:14:46;;;;;;;4.85;4.45;;;;;;;7.74;59.27;95930.00;5096518;28;20203;-71
2022/12/28 05:17:13;;;;;;;4.80;4.40;;;;;;;7.74;58.92;95934.69;5096516;28;20199;-71
2022/12/28 05:19:39;;;;;;;5.10;4.70;;;;;;;7.72;58.92;95932.22;5096567;28;20200;-71
2022/12/28 05:22:10;;;;;;;7.25;6.53;;;;;;;7.69;60.47;95938.34;5096384;28;20200;-72
2022/12/28 05:24:37;;;;;;;7.55;6.95;;;;;;;7.65;59.98;95935.41;5096489;28;20292;-71
2022/12/28 05:27:04;;;;;;;6.32;5.80;;;;;;;7.65;59.82;95940.91;5096531;28;20195;-72
2022/12/28 05:29:31;;;;;;;4.88;4.50;;;;;;;7.67;59.15;95948.84;5096175;28;20193;-71
2022/12/28 05:31:59;;;;;;;4.30;3.90;;;;;;;7.66;58.35;95941.72;5096180;28;20199;-72
2022/12/28 05:34:25;;;;;;;4.18;3.88;;;;;;;7.63;57.94;95939.63;5096573;28;20200;-72
2022/12/28 05:36:52;;;;;;;4.40;4.10;;;;;;;7.64;57.80;95949.47;5095727;28;20192;-72
2022/12/28 05:39:19;;;;;;;4.45;4.10;;;;;;;7.62;57.80;95947.00;5095925;28;20690;-72
2022/12/28 05:41:45;;;;;;;4.18;3.88;;;;;;;7.61;57.99;95953.63;5095975;28;20200;-71
2022/12/28 05:44:12;;;;;;;4.72;4.32;;;;;;;7.58;57.90;95961.69;5095808;28;20211;-71
2022/12/28 05:46:39;;;;;;;4.80;4.40;;;;;;;7.56;58.21;95953.78;5096045;28;20192;-71
2022/12/28 05:49:09;;;;;;;5.00;4.60;;;;;;;7.55;58.11;95952.13;5096157;28;20204;-71
2022/12/28 05:51:36;;;;;;;4.90;4.60;;;;;;;7.52;57.97;95962.97;5096866;28;20192;-71
2022/12/28 05:54:04;;;;;;;4.95;4.55;;;;;;;7.46;57.82;95959.50;5096831;28;20205;-71
2022/12/28 05:56:31;;;;;;;5.32;4.93;;;;;;;7.46;57.95;95956.75;5095905;28;20200;-71
2022/12/28 05:58:59;;;;;;;5.00;4.60;;;;;;;7.46;58.41;95960.31;5096746;28;20578;-71
2022/12/28 06:01:27;;;;;;;4.50;4.20;;;;;;;7.41;58.14;95963.19;5095885;28;20201;-72
2022/12/28 06:03:56;;;;;;;4.95;4.55;;;;;;;7.41;58.22;95954.97;5095734;28;20193;-72
2022/12/28 06:06:25;;;;;;;5.45;4.95;;;;;;;7.43;58.60;95971.09;5096173;28;20185;-72
2022/12/28 06:08:52;;;;;;;6.85;6.25;;;;;;;7.40;58.22;95975.28;5095853;28;20208;-71
2022/12/28 06:11:20;;;;;;;6.70;6.10;;;;;;;7.43;58.64;95987.56;5095735;28;20196;-74
2022/12/28 06:13:47;;;;;;;6.70;6.10;;;;;;;7.41;58.63;95985.16;5095401;28;20223;-73
2022/12/28 06:16:16;;;;;;;7.80;7.05;;;;;;;7.41;58.72;95982.41;5096380;28;20188;-73
2022/12/28 06:18:43;;;;;;;7.35;6.65;;;;;;;7.39;58.80;95976.41;5096208;28;20200;-73
2022/12/28 06:21:12;;;;;;;7.88;7.07;;;;;;;7.38;59.21;95976.72;5096558;28;20210;-73
2022/12/28 06:23:40;;;;;;;6.20;5.70;;;;;;;7.38;59.35;95972.03;5096058;28;20187;-73
2022/12/28 06:26:08;;;;;;;6.53;5.93;;;;;;;7.42;59.03;95969.50;5095252;28;20257;-73
2022/12/28 06:28:36;;;;;;;6.57;6.07;;;;;;;7.40;59.25;95975.28;5095200;28;20193;-73
2022/12/28 06:31:04;;;;;;;7.00;6.38;;;;;;;7.37;59.71;95969.59;5095605;28;20196;-73
2022/12/28 06:33:31;;;;;;;6.45;5.95;;;;;;;7.33;59.36;95974.88;5096083;28;20211;-73
2022/12/28 06:35:58;;;;;;;6.80;6.20;;;;;;;7.29;59.47;95984.06;5095752;28;20196;-73
2022/12/28 06:38:25;;;;;;;6.63;6.03;;;;;;;7.29;59.23;95993.09;5096064;28;20188;-73
2022/12/28 06:40:54;;;;;;;7.00;6.00;;;;;;;7.33;59.34;95999.59;5094911;28;20255;-73
2022/12/28 06:43:21;;;;;;;5.90;5.40;;;;;;;7.33;58.67;95999.59;5096186;28;20181;-73
2022/12/28 06:45:55;;;;;;;7.30;5.45;;;;;;;7.34;58.89;95992.19;5095085;28;20204;-72
2022/12/28 06:48:22;;;;;;;6.57;6.07;;;;;;;7.36;59.09;95987.19;5095547;28;20192;-75
2022/12/28 06:50:55;;;;;;;6.10;5.60;;;;;;;7.36;58.81;95988.00;5094774;28;20592;-73
2022/12/28 06:53:22;;;;;;;6.50;6.00;;;;;;;7.37;58.53;95992.38;5094840;28;20627;-73
2022/12/28 06:55:54;;;;;;;7.50;6.90;;;;;;;7.37;58.35;95999.78;5095417;28;20253;-74
2022/12/28 06:58:21;;;;;;;6.50;5.90;;;;;;;7.39;58.84;95989.31;5094620;28;20208;-73
2022/12/28 07:00:48;;;;;;;5.72;5.32;;;;;;;7.39;58.75;95997.56;5095681;28;20192;-74
2022/12/28 07:03:14;;;;;;;6.30;5.70;;;;;;;7.41;58.77;95984.34;5094375;28;20564;-73
2022/12/28 07:05:41;;;;;;;5.90;5.30;;;;;;;7.42;58.54;95995.00;5094363;28;20200;-74
2022/12/28 07:08:08;;;;;;;7.05;6.45;;;;;;;7.38;58.16;95990.44;5094331;28;20651;-73
2022/12/28 07:10:35;;;;;;;7.55;6.95;;;;;;;7.37;58.33;95991.53;5094649;28;20196;-74
2022/12/28 07:13:03;;;;;;;7.10;6.40;;;;;;;7.33;58.30;95988.63;5094342;28;20228;-73
2022/12/28 07:15:30;;;;;;;6.95;6.35;;;;;;;7.37;58.41;95992.38;5094477;28;20539;-74
2022/12/28 07:17:58;;;;;;;6.82;6.30;;;;;;;7.43;58.25;95993.06;5095492;28;20554;-74
2022/12/28 07:20:25;;;;;;;6.40;5.80;;;;;;;7.44;58.29;95995.50;5094848;28;20597;-73
2022/12/28 07:22:53;;;;;;;6.03;5.50;;;;;;;7.50;58.25;95987.16;5094399;28;20230;-73
2022/12/28 07:25:20;;;;;;;6.10;5.68;;;;;;;7.50;58.29;95990.69;5094514;28;20192;-73
2022/12/28 07:27:47;;;;;;;7.95;7.13;;;;;;;7.53;58.13;95986.53;5095349;28;20188;-73
2022/12/28 07:30:16;;;;;;;6.88;6.28;;;;;;;7.57;58.36;95991.09;5094431;28;20185;-73
2022/12/28 07:32:42;;;;;;;6.53;6.00;;;;;;;7.63;58.59;95989.84;5094399;28;20207;-73
2022/12/28 07:35:09;;;;;;;8.02;7.10;;;;;;;7.69;57.81;95996.81;5095566;28;20192;-73
2022/12/28 07:37:36;;;;;;;9.00;7.82;;;;;;;7.72;57.88;96009.94;5095802;28;20196;-73
2022/12/28 07:40:03;;;;;;;10.48;9.43;;;;;;;7.80;58.15;96004.81;5094563;28;20228;-72
2022/12/28 07:42:30;;;;;;;8.82;8.02;;;;;;;7.84;57.57;96009.38;5094081;28;20200;-73
2022/12/28 07:44:57;;;;;;;8.18;7.38;;;;;;;7.86;57.28;96006.31;5094576;28;20201;-74
2022/12/28 07:47:25;;;;;;;6.65;6.05;;;;;;;7.85;56.79;96008.25;5095354;28;20195;-73
2022/12/28 07:49:51;;;;;;;6.22;5.72;;;;;;;7.83;56.39;96010.50;5094344;28;20441;-74
2022/12/28 07:52:18;;;;;;;6.07;5.60;;;;;;;7.80;56.79;96010.31;5095210;28;20196;-73
2022/12/28 07:54:45;;;;;;;6.90;6.30;;;;;;;7.79;56.46;96009.50;5094245;28;20219;-73
2022/12/28 07:57:12;;;;;;;7.00;6.40;;;;;;;7.78;56.34;96010.63;5094175;28;20200;-73
2022/12/28 07:59:38;;;;;;;7.35;6.65;;;;;;;7.76;56.86;96009.31;5095411;28;20191;-73
2022/12/28 08:02:05;;;;;;;7.85;6.90;;;;;;;7.75;57.40;96008.50;5098764;28;20539;-73
2022/12/28 08:04:33;;;;;;;7.35;6.65;;;;;;;7.77;57.18;96008.19;5099003;28;20219;-73
2022/12/28 08:07:00;;;;;;;8.00;7.30;;;;;;;7.79;56.99;96009.50;5098694;28;20196;-73
2022/12/28 08:09:27;;;;;;;8.43;7.70;;;;;;;7.79;57.01;96005.94;5098109;28;20259;-73
2022/12/28 08:11:53;;;;;;;8.85;8.05;;;;;;;7.80;56.94;96007.56;5097612;28;20200;-73
2022/12/28 08:14:20;;;;;;;7.82;7.13;;;;;;;7.76;56.65;96012.84;5098375;28;20208;-73
2022/12/28 08:16:48;;;;;;;7.25;6.55;;;;;;;7.73;56.87;96010.72;5099047;28;20234;-74
2022/12/28 08:19:15;;;;;;;8.90;7.40;;;;;;;7.72;57.00;96011.88;5097824;28;20199;-73
2022/12/28 08:21:44;;;;;;;7.50;6.82;;;;;;;7.72;57.20;96020.09;5098683;28;20200;-73
2022/12/28 08:24:14;;;;;;;7.57;6.70;;;;;;;7.73;57.12;96013.47;5097709;28;20202;-73
2022/12/28 08:26:41;;;;;;;7.53;6.78;;;;;;;7.72;57.26;96015.41;5097767;28;20219;-73
2022/12/28 08:29:10;;;;;;;9.27;8.48;;;;;;;7.72;57.36;96017.34;5098518;28;20176;-73
2022/12/28 08:31:38;;;;;;;8.00;7.30;;;;;;;7.74;57.55;96017.88;5098279;28;20609;-73
2022/12/28 08:34:06;;;;;;;7.70;7.00;;;;;;;7.75;57.47;96016.75;5098078;28;20216;-72
2022/12/28 08:36:33;;;;;;;8.38;7.35;;;;;;;7.76;57.78;96020.28;5098270;28;20632;-72
2022/12/28 08:39:02;;;;;;;8.20;7.50;;;;;;;7.75;57.88;96021.41;5097453;28;20593;-73
2022/12/28 08:41:29;;;;;;;7.43;6.72;;;;;;;7.72;57.51;96020.91;5098570;28;20192;-73
2022/12/28 08:43:56;;;;;;;6.80;6.10;;;;;;;7.69;57.41;96009.75;5097118;28;20192;-72
2022/12/28 08:46:24;;;;;;;7.78;7.00;;;;;;;7.71;57.61;96023.97;5097463;28;20211;-72
2022/12/28 08:48:53;;;;;;;8.00;7.30;;;;;;;7.76;58.02;96018.34;5097565;28;20204;-73
2022/12/28 08:51:22;;;;;;;8.13;7.35;;;;;;;7.80;57.81;96010.31;5097058;28;20632;-73
2022/12/28 08:53:49;;;;;;;8.27;7.28;;;;;;;7.84;58.02;96011.28;5098244;28;20220;-73
2022/12/28 08:56:18;;;;;;;7.78;7.07;;;;;;;7.86;57.70;96009.88;5097502;28;20200;-73
2022/12/28 08:58:46;;;;;;;8.20;7.50;;;;;;;7.86;57.49;96012.63;5097988;28;20181;-72
2022/12/28 09:01:15;;;;;;;8.13;7.43;;;;;;;7.88;57.71;96001.31;5097034;28;20211;-72
2022/12/28 09:03:44;;;;;;;7.93;7.22;;;;;;;7.85;57.00;96000.00;5096854;28;20564;-72
2022/12/28 09:06:12;;;;;;;7.95;7.25;;;;;;;7.85;57.40;95993.72;5097384;28;20257;-72
2022/12/28 09:08:42;;;;;;;8.40;7.65;;;;;;;7.88;58.03;95991.16;5097933;28;20185;-73
2022/12/28 09:11:10;;;;;;;7.93;7.22;;;;;;;7.89;57.83;95984.53;5097304;28;20192;-73
2022/12/28 09:13:39;;;;;;;7.65;6.88;;;;;;;7.87;57.88;95984.00;5097356;28;20628;-73
2022/12/28 09:16:07;;;;;;;6.70;6.10;;;;;;;7.84;57.59;95981.94;5097213;28;20550;-73
2022/12/28 09:18:35;;;;;;;6.32;5.82;;;;;;;7.87;58.30;95988.69;5097233;28;20193;-72
2022/12/28 09:21:05;;;;;;;5.80;5.30;;;;;;;7.88;58.11;95984.81;5096635;28;20192;-73
2022/12/28 09:23:32;;;;;;;6.15;5.53;;;;;;;7.88;58.32;95980.16;5097384;28;20189;-73
2022/12/28 09:26:04;;;;;;;5.57;5.18;;;;;;;7.89;58.53;95979.03;5096428;28;20192;-73
2022/12/28 09:28:30;;;;;;;5.97;5.40;;;;;;;7.92;58.77;95974.84;5097412;28;20203;-73
2022/12/28 09:31:02;;;;;;;7.32;6.78;;;;;;;7.94;58.60;95970.66;5097378;28;20195;-72
2022/12/28 09:36:13;;;;;;;8.82;8.02;;;;;;;8.05;58.68;95964.91;5097218;28;20330;-72
2022/12/28 09:38:40;;;;;;;8.48;7.68;;;;;;;8.07;58.63;95957.16;5096389;28;20192;-73
2022/12/28 09:41:11;;;;;;;7.45;6.82;;;;;;;8.09;58.56;95961.19;5097172;28;20192;-73
2022/12/28 09:43:41;;;;;;;7.53;6.93;;;;;;;8.14;58.79;95960.28;5095764;28;20188;-73
2022/12/28 09:46:09;;;;;;;6.75;6.15;;;;;;;8.09;58.27;95952.94;5097048;28;20188;-73
2022/12/28 09:48:36;;;;;;;5.82;5.43;;;;;;;8.03;58.10;95945.19;5095741;28;20200;-73
2022/12/28 09:51:03;;;;;;;6.40;5.80;;;;;;;8.08;58.56;95943.09;5096614;28;20605;-73
2022/12/28 09:53:32;;;;;;;6.82;6.13;;;;;;;8.10;58.49;95940.06;5095991;28;20227;-72
2022/12/28 09:56:02;;;;;;;6.65;6.03;;;;;;;8.08;58.01;95936.78;5096804;28;20592;-73
2022/12/28 09:58:31;;;;;;;6.30;5.80;;;;;;;8.13;58.36;95936.66;5096456;28;20176;-72
2022/12/28 10:01:00;;;;;;;6.68;6.00;;;;;;;8.14;58.27;95933.59;5096500;28;20260;-72
2022/12/28 10:03:34;;;;;;;6.50;5.90;;;;;;;8.16;57.88;95936.81;5095391;28;20192;-72
2022/12/28 10:06:02;;;;;;;6.25;5.72;;;;;;;8.15;57.42;95932.47;5095267;28;20203;-72
2022/12/28 10:08:29;;;;;;;6.97;6.38;;;;;;;8.15;57.70;95921.47;5096583;28;20264;-73
2022/12/28 10:11:00;;;;;;;6.85;6.35;;;;;;;8.19;58.01;95919.72;5095301;28;20203;-72
2022/12/28 10:13:30;;;;;;;6.75;6.15;;;;;;;8.23;57.91;95921.81;5095066;28;20204;-72
2022/12/28 10:15:57;;;;;;;9.95;8.20;;;;;;;8.27;58.07;95922.81;5096258;28;20184;-72
2022/12/28 10:18:26;;;;;;;7.10;6.50;;;;;;;8.30;57.32;95922.19;5095676;28;20201;-72
2022/12/28 10:20:55;;;;;;;7.88;7.18;;;;;;;8.34;57.58;95923.16;5096164;28;20180;-72
2022/12/28 10:23:26;;;;;;;8.20;7.50;;;;;;;8.39;57.14;95923.06;5094572;28;20257;-72
2022/12/28 10:25:53;;;;;;;8.02;7.22;;;;;;;8.49;57.84;95925.50;5095793;28;20287;-72
2022/12/28 10:28:22;;;;;;;8.85;7.95;;;;;;;8.55;57.24;95909.69;5078320;28;20261;-72
2022/12/28 10:31:03;;;;;;;8.68;7.88;;;;;;;8.61;56.86;95908.41;5095125;28;20597;-73
2022/12/28 10:33:29;;;;;;;7.22;6.63;;;;;;;8.63;57.20;95917.13;5095845;28;20249;-72
2022/12/28 10:35:59;;;;;;;7.32;6.72;;;;;;;8.63;57.44;95914.38;5095808;28;20200;-72
2022/12/28 10:38:27;;;;;;;6.30;5.72;;;;;;;8.57;56.37;95905.50;5095803;28;20208;-72
2022/12/28 10:40:59;;;;;;;6.22;5.70;;;;;;;8.54;55.91;95913.56;5096105;28;20228;-73
2022/12/28 10:43:28;;;;;;;6.40;5.80;;;;;;;8.49;56.14;95908.22;5095045;28;20188;-73
2022/12/28 10:45:56;;;;;;;5.60;5.10;;;;;;;8.49;55.42;95909.00;5095035;28;20196;-73
2022/12/28 10:48:25;;;;;;;5.68;5.20;;;;;;;8.47;55.30;95904.97;5095470;28;20210;-72
2022/12/28 10:50:54;;;;;;;4.90;4.53;;;;;;;8.42;55.48;95904.00;5094470;28;20200;-73
2022/12/28 10:53:26;;;;;;;6.20;5.70;;;;;;;8.50;56.12;95912.59;5094873;28;20210;-73
2022/12/28 10:56:06;;;;;;;7.20;6.60;;;;;;;8.56;56.47;95912.09;5094870;28;20212;-73
2022/12/28 10:58:33;;;;;;;7.80;7.10;;;;;;;8.59;56.52;95907.91;5096669;28;20184;-72
2022/12/28 11:01:03;;;;;;;6.72;6.18;;;;;;;8.60;55.98;95909.53;5095082;28;20204;-72
2022/12/28 11:03:34;;;;;;;6.97;6.38;;;;;;;8.58;56.20;95915.34;5095742;28;20191;-72
2022/12/28 11:06:24;;;;;;;8.50;7.35;;;;;;;8.56;56.12;95909.34;5095875;28;20196;-72
2022/12/28 11:09:06;;;;;;;6.80;6.18;;;;;;;8.51;56.04;95917.75;5080203;28;20226;-73
2022/12/28 11:11:33;;;;;;;7.28;6.57;;;;;;;8.51;56.12;95911.47;5094560;28;20245;-72
2022/12/28 11:14:03;;;;;;;9.13;7.78;;;;;;;8.51;56.02;95911.47;5094184;28;20569;-73
2022/12/28 11:16:31;;;;;;;7.50;6.80;;;;;;;8.52;56.34;95916.63;5094852;28;20644;-73
2022/12/28 11:18:58;;;;;;;6.40;5.88;;;;;;;8.50;56.18;95916.16;5095952;28;20189;-72
2022/12/28 11:21:24;;;;;;;7.63;6.90;;;;;;;8.49;56.05;95917.25;5094929;28;20196;-73
2022/12/28 11:23:52;;;;;;;8.05;7.30;;;;;;;8.41;55.40;95918.03;5095324;28;20487;-75
2022/12/28 11:26:21;;;;;;;9.90;9.00;;;;;;;8.38;56.10;95924.19;5095373;28;20249;-73
2022/12/28 11:28:50;;;;;;;8.00;7.30;;;;;;;8.38;56.36;95924.97;5094921;28;20200;-72
2022/12/28 11:31:21;;;;;;;7.30;6.70;;;;;;;8.38;56.33;95921.44;5094405;28;20201;-72
2022/12/28 11:33:50;;;;;;;7.78;7.13;;;;;;;8.34;56.67;95923.16;5094412;28;20608;-72
2022/12/28 11:36:19;;;;;;;8.20;7.50;;;;;;;8.29;56.49;95920.56;5098827;28;20203;-72
2022/12/28 11:38:46;;;;;;;9.45;8.10;;;;;;;8.29;56.92;95913.13;5098555;28;20204;-73
2022/12/28 11:41:45;;;;;;;8.10;7.40;;;;;;;8.31;57.04;95919.09;5099055;28;20193;-73
2022/12/28 11:44:23;;;;;;;9.25;8.45;;;;;;;8.30;56.50;95919.44;5099108;28;20235;-72
2022/12/28 11:47:00;;;;;;;7.88;7.07;;;;;;;8.28;57.03;95924.44;5099531;28;20257;-72
2022/12/28 11:49:35;;;;;;;7.72;7.07;;;;;;;8.29;57.14;95917.81;5099222;28;20207;-73
2022/12/28 11:52:34;;;;;;;9.23;8.25;;;;;;;8.31;57.49;95907.31;5098945;28;20237;-72
2022/12/28 11:55:02;;;;;;;8.13;7.43;;;;;;;8.30;57.69;95912.00;5099139;28;20245;-72
2022/12/28 11:57:37;;;;;;;9.30;8.40;;;;;;;8.31;57.77;95910.06;5100162;28;20573;-72
2022/12/28 12:00:49;;;;;;;9.30;8.38;;;;;;;8.28;57.55;95899.69;5100546;28;20180;-73
2022/12/28 12:03:16;;;;;;;7.65;6.97;;;;;;;8.29;57.53;95904.88;5100372;28;20192;-73
2022/12/28 12:05:51;;;;;;;8.10;7.30;;;;;;;8.33;57.71;95894.88;5099582;28;20196;-73
2022/12/28 12:08:41;;;;;;;11.30;10.15;;;;;;;8.31;57.26;95883.38;5098643;28;20199;-72
2022/12/28 12:11:26;;;;;;;12.48;10.68;;;;;;;8.33;58.00;95881.13;5089055;28;20637;-73
2022/12/28 12:13:55;;;;;;;11.98;10.82;;;;;;;8.36;57.72;95880.50;5099231;28;20204;-72
2022/12/28 12:16:45;;;;;;;13.50;12.30;;;;;;;8.36;57.20;95880.50;5099663;28;20226;-72
2022/12/28 12:19:20;;;;;;;13.63;12.20;;;;;;;8.35;57.88;95870.63;5099495;28;20196;-73